sensor_id;sensor_type;location;lat;lon;timestamp;P1;durP1;ratioP1;P2;durP2;ratioP2
46505;SDS011;32220;49.808;9.968;2023-12-04T09:08:34;17.93;;;9.50;;
46505;SDS011;32220;49.808;9.968;2023-12-04T09:11:02;15.13;;;9.70;;
46505;SDS011;32220;49.808;9.968;2023-12-04T09:13:30;14.23;;;9.03;;
46505;SDS011;32220;49.808;9.968;2023-12-04T09:15:59;15.03;;;9.27;;
46505;SDS011;32220;49.808;9.968;2023-12-04T09:18:27;15.73;;;9.57;;
46505;SDS011;32220;49.808;9.968;2023-12-04T09:20:54;16.97;;;10.07;;
46505;SDS011;32220;49.808;9.968;2023-12-04T09:23:22;17.03;;;9.93;;
46505;SDS011;32220;49.808;9.968;2023-12-04T09:25:51;14.50;;;9.20;;
46505;SDS011;32220;49.808;9.968;2023-12-04T09:28:18;13.53;;;8.50;;
46505;SDS011;32220;49.808;9.968;2023-12-04T09:30:45;13.77;;;8.17;;
46505;SDS011;32220;49.808;9.968;2023-12-04T09:33:13;13.57;;;8.30;;
46505;SDS011;32220;49.808;9.968;2023-12-04T09:35:41;11.37;;;8.67;;
46505;SDS011;32220;49.808;9.968;2023-12-04T09:38:08;11.60;;;8.03;;
46505;SDS011;32220;49.808;9.968;2023-12-04T09:40:36;10.90;;;7.93;;
46505;SDS011;32220;49.808;9.968;2023-12-04T09:43:06;14.33;;;8.47;;
46505;SDS011;32220;49.808;9.968;2023-12-04T09:45:34;12.00;;;8.43;;
46505;SDS011;32220;49.808;9.968;2023-12-04T09:48:03;11.43;;;8.47;;
46505;SDS011;32220;49.808;9.968;2023-12-04T09:50:35;12.23;;;8.63;;
46505;SDS011;32220;49.808;9.968;2023-12-04T09:53:03;11.77;;;7.73;;
46505;SDS011;32220;49.808;9.968;2023-12-04T09:55:33;12.67;;;8.47;;
46505;SDS011;32220;49.808;9.968;2023-12-04T09:58:01;11.90;;;8.67;;
46505;SDS011;32220;49.808;9.968;2023-12-04T10:00:30;12.73;;;8.10;;
46505;SDS011;32220;49.808;9.968;2023-12-04T10:02:59;12.57;;;8.33;;
46505;SDS011;32220;49.808;9.968;2023-12-04T10:05:28;13.67;;;8.70;;
46505;SDS011;32220;49.808;9.968;2023-12-04T10:07:56;13.67;;;8.57;;
46505;SDS011;32220;49.808;9.968;2023-12-04T10:10:23;12.73;;;8.13;;
46505;SDS011;32220;49.808;9.968;2023-12-04T10:12:51;11.10;;;8.33;;
46505;SDS011;32220;49.808;9.968;2023-12-04T10:15:19;11.10;;;7.80;;
46505;SDS011;32220;49.808;9.968;2023-12-04T10:17:48;12.30;;;7.80;;
46505;SDS011;32220;49.808;9.968;2023-12-04T10:20:16;11.63;;;8.23;;
46505;SDS011;32220;49.808;9.968;2023-12-04T10:22:53;13.30;;;7.90;;
46505;SDS011;32220;49.808;9.968;2023-12-04T10:25:22;12.27;;;7.37;;
46505;SDS011;32220;49.808;9.968;2023-12-04T10:27:52;11.13;;;7.47;;
46505;SDS011;32220;49.808;9.968;2023-12-04T10:30:23;10.00;;;7.40;;
46505;SDS011;32220;49.808;9.968;2023-12-04T10:32:55;10.27;;;7.47;;
46505;SDS011;32220;49.808;9.968;2023-12-04T10:35:27;11.20;;;7.23;;
46505;SDS011;32220;49.808;9.968;2023-12-04T10:37:56;9.83;;;6.80;;
46505;SDS011;32220;49.808;9.968;2023-12-04T10:40:25;9.33;;;6.70;;
46505;SDS011;32220;49.808;9.968;2023-12-04T10:43:10;13.47;;;6.63;;
46505;SDS011;32220;49.808;9.968;2023-12-04T10:45:39;9.77;;;6.53;;
46505;SDS011;32220;49.808;9.968;2023-12-04T10:48:09;11.23;;;7.40;;
46505;SDS011;32220;49.808;9.968;2023-12-04T10:50:38;9.83;;;7.37;;
46505;SDS011;32220;49.808;9.968;2023-12-04T10:53:07;10.30;;;6.50;;
46505;SDS011;32220;49.808;9.968;2023-12-04T10:55:36;8.07;;;5.93;;
46505;SDS011;32220;49.808;9.968;2023-12-04T10:58:05;10.63;;;7.57;;
46505;SDS011;32220;49.808;9.968;2023-12-04T11:00:35;9.63;;;6.80;;
46505;SDS011;32220;49.808;9.968;2023-12-04T11:03:08;9.93;;;6.60;;
46505;SDS011;32220;49.808;9.968;2023-12-04T11:05:40;10.60;;;6.43;;
46505;SDS011;32220;49.808;9.968;2023-12-04T11:08:09;9.20;;;6.63;;
46505;SDS011;32220;49.808;9.968;2023-12-04T11:10:41;10.93;;;7.07;;
46505;SDS011;32220;49.808;9.968;2023-12-04T11:13:15;10.83;;;6.20;;
46505;SDS011;32220;49.808;9.968;2023-12-04T11:15:48;8.57;;;6.23;;
46505;SDS011;32220;49.808;9.968;2023-12-04T11:18:22;7.73;;;6.10;;
46505;SDS011;32220;49.808;9.968;2023-12-04T11:20:51;11.47;;;7.10;;
46505;SDS011;32220;49.808;9.968;2023-12-04T11:23:23;14.07;;;7.87;;
46505;SDS011;32220;49.808;9.968;2023-12-04T11:25:52;10.43;;;7.77;;
46505;SDS011;32220;49.808;9.968;2023-12-04T11:28:20;10.47;;;6.67;;
46505;SDS011;32220;49.808;9.968;2023-12-04T11:30:48;9.47;;;6.60;;
46505;SDS011;32220;49.808;9.968;2023-12-04T11:33:18;8.87;;;6.33;;
46505;SDS011;32220;49.808;9.968;2023-12-04T11:35:48;9.67;;;6.97;;
46505;SDS011;32220;49.808;9.968;2023-12-04T11:38:17;11.03;;;6.27;;
46505;SDS011;32220;49.808;9.968;2023-12-04T11:40:45;9.43;;;6.50;;
46505;SDS011;32220;49.808;9.968;2023-12-04T11:43:24;13.10;;;7.77;;
46505;SDS011;32220;49.808;9.968;2023-12-04T11:45:52;18.17;;;9.60;;
46505;SDS011;32220;49.808;9.968;2023-12-04T11:48:22;10.53;;;7.47;;
46505;SDS011;32220;49.808;9.968;2023-12-04T11:50:52;11.10;;;6.90;;
46505;SDS011;32220;49.808;9.968;2023-12-04T11:53:23;10.53;;;6.60;;
46505;SDS011;32220;49.808;9.968;2023-12-04T11:55:50;8.77;;;6.67;;
46505;SDS011;32220;49.808;9.968;2023-12-04T11:58:22;9.70;;;6.77;;
46505;SDS011;32220;49.808;9.968;2023-12-04T12:00:50;10.77;;;6.73;;
46505;SDS011;32220;49.808;9.968;2023-12-04T12:03:18;8.53;;;6.30;;
46505;SDS011;32220;49.808;9.968;2023-12-04T12:05:48;14.07;;;7.73;;
46505;SDS011;32220;49.808;9.968;2023-12-04T12:08:18;9.93;;;6.37;;
46505;SDS011;32220;49.808;9.968;2023-12-04T12:10:46;9.13;;;6.63;;
46505;SDS011;32220;49.808;9.968;2023-12-04T12:13:13;8.93;;;5.90;;
46505;SDS011;32220;49.808;9.968;2023-12-04T12:15:41;10.87;;;6.40;;
46505;SDS011;32220;49.808;9.968;2023-12-04T12:18:09;11.17;;;7.20;;
46505;SDS011;32220;49.808;9.968;2023-12-04T12:20:37;10.07;;;6.47;;
46505;SDS011;32220;49.808;9.968;2023-12-04T12:23:04;8.83;;;6.60;;
46505;SDS011;32220;49.808;9.968;2023-12-04T12:25:34;11.20;;;6.30;;
46505;SDS011;32220;49.808;9.968;2023-12-04T12:28:02;9.43;;;6.87;;
46505;SDS011;32220;49.808;9.968;2023-12-04T12:30:30;9.50;;;6.53;;
46505;SDS011;32220;49.808;9.968;2023-12-04T12:32:57;10.40;;;7.20;;
46505;SDS011;32220;49.808;9.968;2023-12-04T12:35:25;15.43;;;6.37;;
46505;SDS011;32220;49.808;9.968;2023-12-04T12:37:53;11.33;;;6.77;;
46505;SDS011;32220;49.808;9.968;2023-12-04T12:40:22;9.67;;;6.53;;
46505;SDS011;32220;49.808;9.968;2023-12-04T12:42:51;11.40;;;7.10;;
46505;SDS011;32220;49.808;9.968;2023-12-04T12:45:18;10.03;;;7.00;;
46505;SDS011;32220;49.808;9.968;2023-12-04T12:47:46;9.70;;;7.10;;
46505;SDS011;32220;49.808;9.968;2023-12-04T12:50:14;10.47;;;6.87;;
46505;SDS011;32220;49.808;9.968;2023-12-04T12:52:42;14.43;;;10.03;;
46505;SDS011;32220;49.808;9.968;2023-12-04T12:55:10;11.20;;;6.93;;
46505;SDS011;32220;49.808;9.968;2023-12-04T12:57:37;9.97;;;6.83;;
46505;SDS011;32220;49.808;9.968;2023-12-04T13:00:07;10.80;;;6.20;;
46505;SDS011;32220;49.808;9.968;2023-12-04T13:02:35;9.80;;;6.47;;
46505;SDS011;32220;49.808;9.968;2023-12-04T13:05:04;13.27;;;6.67;;
46505;SDS011;32220;49.808;9.968;2023-12-04T13:07:33;9.07;;;6.63;;
46505;SDS011;32220;49.808;9.968;2023-12-04T13:10:01;12.13;;;7.57;;
46505;SDS011;32220;49.808;9.968;2023-12-04T13:12:30;11.63;;;6.63;;
46505;SDS011;32220;49.808;9.968;2023-12-04T13:14:59;13.03;;;7.27;;
46505;SDS011;32220;49.808;9.968;2023-12-04T13:17:28;10.63;;;7.13;;
46505;SDS011;32220;49.808;9.968;2023-12-04T13:19:56;10.80;;;7.23;;
46505;SDS011;32220;49.808;9.968;2023-12-04T13:22:24;9.73;;;6.90;;
46505;SDS011;32220;49.808;9.968;2023-12-04T13:24:59;10.50;;;7.00;;
46505;SDS011;32220;49.808;9.968;2023-12-04T13:27:28;9.33;;;6.53;;
46505;SDS011;32220;49.808;9.968;2023-12-04T13:29:55;18.57;;;10.17;;
46505;SDS011;32220;49.808;9.968;2023-12-04T13:32:23;21.20;;;12.67;;
46505;SDS011;32220;49.808;9.968;2023-12-04T13:34:52;15.43;;;9.70;;
46505;SDS011;32220;49.808;9.968;2023-12-04T13:37:21;13.77;;;9.77;;
46505;SDS011;32220;49.808;9.968;2023-12-04T13:39:49;11.67;;;8.47;;
46505;SDS011;32220;49.808;9.968;2023-12-04T13:42:23;13.57;;;8.33;;
46505;SDS011;32220;49.808;9.968;2023-12-04T13:45:08;10.73;;;7.63;;
46505;SDS011;32220;49.808;9.968;2023-12-04T13:47:36;13.43;;;9.33;;
46505;SDS011;32220;49.808;9.968;2023-12-04T13:50:07;13.40;;;8.33;;
46505;SDS011;32220;49.808;9.968;2023-12-04T13:52:36;14.27;;;9.37;;
46505;SDS011;32220;49.808;9.968;2023-12-04T13:55:05;12.03;;;8.30;;
46505;SDS011;32220;49.808;9.968;2023-12-04T13:57:42;13.20;;;8.27;;
46505;SDS011;32220;49.808;9.968;2023-12-04T14:00:24;10.43;;;6.63;;
46505;SDS011;32220;49.808;9.968;2023-12-04T14:02:52;12.80;;;7.70;;
46505;SDS011;32220;49.808;9.968;2023-12-04T14:05:27;10.37;;;7.13;;
46505;SDS011;32220;49.808;9.968;2023-12-04T14:07:54;14.90;;;8.13;;
46505;SDS011;32220;49.808;9.968;2023-12-04T14:10:22;10.60;;;7.63;;
46505;SDS011;32220;49.808;9.968;2023-12-04T14:12:51;10.80;;;7.40;;
46505;SDS011;32220;49.808;9.968;2023-12-04T14:15:19;11.67;;;7.37;;
46505;SDS011;32220;49.808;9.968;2023-12-04T14:17:46;10.87;;;7.97;;
46505;SDS011;32220;49.808;9.968;2023-12-04T14:20:15;10.70;;;7.77;;
46505;SDS011;32220;49.808;9.968;2023-12-04T14:22:45;10.13;;;7.63;;
46505;SDS011;32220;49.808;9.968;2023-12-04T14:25:13;10.43;;;7.40;;
46505;SDS011;32220;49.808;9.968;2023-12-04T14:27:41;11.77;;;7.40;;
46505;SDS011;32220;49.808;9.968;2023-12-04T14:30:10;10.00;;;7.20;;
46505;SDS011;32220;49.808;9.968;2023-12-04T14:32:39;11.47;;;7.23;;
46505;SDS011;32220;49.808;9.968;2023-12-04T14:35:07;10.50;;;6.10;;
46505;SDS011;32220;49.808;9.968;2023-12-04T14:37:35;9.30;;;7.00;;
46505;SDS011;32220;49.808;9.968;2023-12-04T14:40:05;9.93;;;6.47;;
46505;SDS011;32220;49.808;9.968;2023-12-04T14:42:33;9.77;;;6.53;;
46505;SDS011;32220;49.808;9.968;2023-12-04T14:45:02;11.83;;;7.57;;
46505;SDS011;32220;49.808;9.968;2023-12-04T14:47:30;9.50;;;6.87;;
46505;SDS011;32220;49.808;9.968;2023-12-04T14:49:57;10.50;;;7.07;;
46505;SDS011;32220;49.808;9.968;2023-12-04T14:52:25;10.13;;;6.70;;
46505;SDS011;32220;49.808;9.968;2023-12-04T14:54:54;10.27;;;6.50;;
46505;SDS011;32220;49.808;9.968;2023-12-04T14:57:48;11.90;;;7.20;;
46505;SDS011;32220;49.808;9.968;2023-12-04T15:00:39;12.20;;;7.30;;
46505;SDS011;32220;49.808;9.968;2023-12-04T15:03:38;10.33;;;7.00;;
